createdAt,value
2023-01-03T00:00:58.099Z,5.82
2023-01-03T00:02:02.647Z,7.57
2023-01-03T00:03:18.483Z,6.35
2023-01-03T00:04:22.704Z,6.38
2023-01-03T00:05:26.997Z,6.53
2023-01-03T00:06:38.072Z,6.07
2023-01-03T00:07:41.621Z,4.75
2023-01-03T00:08:45.785Z,6.05
2023-01-03T00:09:49.606Z,5.35
2023-01-03T00:10:53.547Z,6.65
2023-01-03T00:12:16.631Z,6.50
2023-01-03T00:13:20.914Z,5.25
2023-01-03T00:14:32.507Z,6.22
2023-01-03T00:15:38.380Z,5.07
2023-01-03T00:16:42.285Z,5.60
2023-01-03T00:17:47.109Z,5.13
2023-01-03T00:18:50.856Z,6.50
2023-01-03T00:19:55.846Z,6.15
2023-01-03T00:21:08.206Z,7.13
2023-01-03T00:22:21.078Z,4.72
2023-01-03T00:23:29.155Z,7.00
2023-01-03T00:24:36.584Z,6.68
2023-01-03T00:25:40.152Z,6.15
2023-01-03T00:26:45.487Z,6.47
2023-01-03T00:27:51.432Z,6.63
2023-01-03T00:28:56.955Z,6.53
2023-01-03T00:30:02.260Z,8.05
2023-01-03T00:31:12.850Z,5.40
2023-01-03T00:32:17.827Z,6.20
2023-01-03T00:33:23.062Z,6.53
2023-01-03T00:34:27.218Z,5.47
2023-01-03T00:35:31.303Z,5.55
2023-01-03T00:36:36.254Z,6.15
2023-01-03T00:37:41.138Z,5.95
2023-01-03T00:38:45.051Z,6.53
2023-01-03T00:39:50.791Z,6.43
2023-01-03T00:40:55.289Z,5.80
2023-01-03T00:41:59.175Z,6.68
2023-01-03T00:43:21.234Z,7.30
2023-01-03T00:44:25.852Z,4.47
2023-01-03T00:45:35.084Z,6.05
2023-01-03T00:46:40.186Z,4.85
2023-01-03T00:47:43.869Z,6.85
2023-01-03T00:48:50.561Z,5.75
2023-01-03T00:49:56.826Z,4.90
2023-01-03T00:51:23.414Z,6.07
2023-01-03T00:52:27.147Z,7.18
2023-01-03T00:53:30.920Z,5.60
2023-01-03T00:54:34.878Z,5.75
2023-01-03T00:55:39.192Z,6.35
2023-01-03T00:56:47.842Z,5.15
2023-01-03T00:57:51.714Z,5.68
2023-01-03T00:58:58.204Z,5.47
2023-01-03T01:00:04.143Z,5.43
2023-01-03T01:01:29.473Z,5.43
2023-01-03T01:02:43.073Z,4.75
2023-01-03T01:04:10.309Z,5.70
2023-01-03T01:05:13.863Z,5.85
2023-01-03T01:06:34.060Z,4.75
2023-01-03T01:07:38.174Z,5.53
2023-01-03T01:08:43.476Z,6.32
2023-01-03T01:09:47.921Z,4.68
2023-01-03T01:11:04.219Z,6.10
2023-01-03T01:12:20.463Z,6.25
2023-01-03T01:13:24.486Z,8.00
2023-01-03T01:14:31.127Z,6.03
2023-01-03T01:15:34.920Z,5.93
2023-01-03T01:16:40.920Z,5.95
2023-01-03T01:17:46.103Z,5.05
2023-01-03T01:19:02.843Z,5.65
2023-01-03T01:20:09.590Z,5.70
2023-01-03T01:21:21.289Z,6.38
2023-01-03T01:22:25.024Z,5.30
2023-01-03T01:23:32.324Z,4.43
2023-01-03T01:24:37.590Z,4.97
2023-01-03T01:25:45.465Z,6.10
2023-01-03T01:26:49.997Z,4.85
2023-01-03T01:27:54.873Z,5.18
2023-01-03T01:28:59.003Z,6.20
2023-01-03T01:30:02.665Z,7.55
2023-01-03T01:31:14.352Z,6.38
2023-01-03T01:32:18.977Z,4.07
2023-01-03T01:33:22.347Z,6.15
2023-01-03T01:34:25.744Z,7.45
2023-01-03T01:35:29.880Z,6.25
2023-01-03T01:36:39.700Z,6.30
2023-01-03T01:37:45.206Z,5.15
2023-01-03T01:38:57.697Z,6.35
2023-01-03T01:40:05.225Z,5.40
2023-01-03T01:41:13.763Z,6.00
2023-01-03T01:42:37.185Z,6.70
2023-01-03T01:44:18.299Z,4.97
2023-01-03T01:45:22.293Z,5.13
2023-01-03T01:46:36.840Z,6.03
2023-01-03T01:48:01.957Z,6.03
2023-01-03T01:49:15.508Z,5.40
2023-01-03T01:50:31.038Z,5.03
2023-01-03T01:51:36.922Z,5.18
2023-01-03T01:52:50.650Z,6.15
2023-01-03T01:54:00.855Z,5.88
2023-01-03T01:55:13.928Z,5.70
2023-01-03T01:56:28.348Z,5.05
2023-01-03T01:57:37.643Z,6.78
2023-01-03T01:58:50.540Z,5.88
2023-01-03T01:59:54.239Z,5.28
2023-01-03T02:00:59.542Z,6.38
2023-01-03T02:02:22.115Z,5.60
2023-01-03T02:03:27.523Z,5.95
2023-01-03T02:04:43.057Z,4.63
2023-01-03T02:05:55.613Z,4.82
2023-01-03T02:07:04.086Z,5.95
2023-01-03T02:08:08.976Z,5.43
2023-01-03T02:09:21.181Z,7.25
2023-01-03T02:11:09.689Z,5.70
2023-01-03T02:13:06.005Z,4.50
2023-01-03T02:14:58.659Z,5.88
2023-01-03T02:16:19.449Z,5.88
2023-01-03T02:17:50.203Z,4.97
2023-01-03T02:19:56.657Z,6.18
2023-01-03T02:22:00.350Z,4.80
2023-01-03T02:23:42.740Z,6.13
2023-01-03T02:25:24.434Z,5.88
2023-01-03T02:26:55.908Z,5.80
2023-01-03T02:28:38.731Z,5.88
2023-01-03T02:30:22.690Z,5.10
2023-01-03T02:31:52.386Z,6.38
2023-01-03T02:33:37.262Z,5.05
2023-01-03T02:35:13.054Z,6.63
2023-01-03T02:36:37.695Z,6.03
2023-01-03T02:38:16.360Z,5.47
2023-01-03T02:39:42.038Z,5.63
2023-01-03T02:41:12.902Z,5.97
2023-01-03T02:43:02.348Z,6.57
2023-01-03T02:44:31.355Z,5.68
2023-01-03T02:46:18.397Z,5.85
2023-01-03T02:47:28.795Z,6.40
2023-01-03T02:49:16.532Z,5.28
2023-01-03T02:50:31.155Z,5.10
2023-01-03T02:51:46.208Z,6.15
2023-01-03T02:52:55.530Z,4.78
2023-01-03T02:54:01.319Z,4.93
2023-01-03T02:55:22.163Z,6.75
2023-01-03T02:56:37.887Z,5.85
2023-01-03T02:57:53.980Z,5.80
2023-01-03T02:59:15.544Z,6.13
2023-01-03T03:00:26.195Z,4.95
2023-01-03T03:01:33.780Z,5.57
2023-01-03T03:02:40.406Z,6.55
2023-01-03T03:03:47.528Z,6.05
2023-01-03T03:04:57.097Z,6.25
2023-01-03T03:06:44.464Z,7.03
2023-01-03T03:07:47.962Z,6.38
2023-01-03T03:08:52.070Z,5.45
2023-01-03T03:10:20.312Z,6.03
2023-01-03T03:11:49.410Z,6.30
2023-01-03T03:13:16.175Z,6.13
2023-01-03T03:14:44.080Z,5.97
2023-01-03T03:16:11.360Z,5.43
2023-01-03T03:17:26.509Z,6.05
2023-01-03T03:19:46.711Z,5.82
2023-01-03T03:21:09.070Z,5.85
2023-01-03T03:22:49.703Z,5.53
2023-01-03T03:24:18.248Z,4.25
2023-01-03T03:25:38.558Z,6.78
2023-01-03T03:26:45.427Z,5.45
2023-01-03T03:28:16.660Z,6.32
2023-01-03T03:29:23.988Z,5.38
2023-01-03T03:30:42.540Z,5.43
2023-01-03T03:31:51.273Z,5.45
2023-01-03T03:33:12.448Z,5.88
2023-01-03T03:34:33.146Z,5.07
2023-01-03T03:35:51.014Z,5.57
2023-01-03T03:37:26.748Z,7.00
2023-01-03T03:38:38.894Z,4.90
2023-01-03T03:40:06.549Z,5.03
2023-01-03T03:42:01.950Z,5.93
2023-01-03T03:43:45.566Z,5.28
2023-01-03T03:45:02.299Z,4.95
2023-01-03T03:46:31.147Z,5.65
2023-01-03T03:47:44.834Z,5.40
2023-01-03T03:49:33.298Z,4.60
2023-01-03T03:50:53.490Z,5.75
2023-01-03T03:52:06.785Z,6.10
2023-01-03T03:53:14.510Z,5.55
2023-01-03T03:54:29.071Z,5.72
2023-01-03T03:56:04.051Z,5.30
2023-01-03T03:57:23.523Z,6.18
2023-01-03T03:58:43.360Z,5.70
2023-01-03T03:59:55.505Z,5.30
2023-01-03T04:01:01.319Z,4.75
2023-01-03T04:02:08.437Z,4.13
2023-01-03T04:03:24.483Z,5.22
2023-01-03T04:04:38.023Z,4.20
2023-01-03T04:05:49.880Z,5.10
2023-01-03T04:06:53.819Z,5.78
2023-01-03T04:07:59.600Z,5.18
2023-01-03T04:09:03.920Z,5.25
2023-01-03T04:10:11.118Z,5.82
2023-01-03T04:11:15.005Z,5.40
2023-01-03T04:12:21.073Z,5.68
2023-01-03T04:13:28.058Z,5.25
2023-01-03T04:14:33.028Z,5.28
2023-01-03T04:15:36.965Z,5.20
2023-01-03T04:16:45.689Z,5.65
2023-01-03T04:17:49.962Z,4.60
2023-01-03T04:18:54.507Z,5.47
2023-01-03T04:19:57.931Z,3.92
2023-01-03T04:21:01.873Z,4.70
2023-01-03T04:22:12.798Z,5.72
2023-01-03T04:23:16.730Z,3.95
2023-01-03T04:24:22.654Z,5.18
2023-01-03T04:25:28.581Z,4.10
2023-01-03T04:26:32.694Z,4.93
2023-01-03T04:27:37.105Z,4.68
2023-01-03T04:28:46.819Z,4.07
2023-01-03T04:29:51.082Z,4.82
2023-01-03T04:31:04.806Z,4.90
2023-01-03T04:32:11.759Z,4.53
2023-01-03T04:33:26.143Z,4.53
2023-01-03T04:34:30.141Z,3.92
2023-01-03T04:35:34.883Z,4.53
2023-01-03T04:36:38.807Z,4.57
2023-01-03T04:37:42.649Z,3.72
2023-01-03T04:38:46.571Z,4.47
2023-01-03T04:39:51.141Z,4.38
2023-01-03T04:41:16.751Z,3.60
2023-01-03T04:42:39.836Z,3.65
2023-01-03T04:44:15.602Z,4.38
2023-01-03T04:45:20.645Z,5.57
2023-01-03T04:46:26.275Z,3.33
2023-01-03T04:47:30.155Z,4.03
2023-01-03T04:48:34.090Z,3.45
2023-01-03T04:49:39.204Z,4.22
2023-01-03T04:50:42.767Z,4.45
2023-01-03T04:51:46.661Z,3.00
2023-01-03T04:52:50.865Z,3.92
2023-01-03T04:53:55.370Z,3.50
2023-01-03T04:54:59.107Z,3.53
2023-01-03T04:56:03.236Z,5.03
2023-01-03T04:57:15.283Z,2.85
2023-01-03T04:58:20.817Z,3.50
2023-01-03T04:59:24.945Z,3.53
2023-01-03T05:00:28.517Z,3.55
2023-01-03T05:01:32.293Z,4.32
2023-01-03T05:02:36.379Z,3.58
2023-01-03T05:03:41.007Z,4.82
2023-01-03T05:04:48.100Z,3.90
2023-01-03T05:05:52.056Z,3.90
2023-01-03T05:07:11.860Z,4.07
2023-01-03T05:08:15.530Z,3.08
2023-01-03T05:09:27.163Z,3.08
2023-01-03T05:10:32.418Z,4.68
2023-01-03T05:11:36.300Z,3.65
2023-01-03T05:12:39.739Z,3.33
2023-01-03T05:13:44.265Z,3.90
2023-01-03T05:14:48.378Z,3.45
2023-01-03T05:15:52.370Z,3.60
2023-01-03T05:16:55.994Z,3.65
2023-01-03T05:17:59.495Z,3.30
2023-01-03T05:19:02.921Z,2.97
2023-01-03T05:20:31.193Z,3.50
2023-01-03T05:21:56.169Z,4.90
2023-01-03T05:23:19.089Z,4.03
2023-01-03T05:24:41.560Z,3.35
2023-01-03T05:25:52.066Z,3.83
2023-01-03T05:26:57.163Z,4.03
2023-01-03T05:28:02.752Z,3.53
2023-01-03T05:29:14.605Z,3.45
2023-01-03T05:30:25.835Z,3.95
2023-01-03T05:31:29.888Z,2.90
2023-01-03T05:32:35.298Z,3.10
2023-01-03T05:33:41.712Z,3.95
2023-01-03T05:34:45.642Z,3.17
2023-01-03T05:35:49.790Z,3.60
2023-01-03T05:37:06.028Z,3.10
2023-01-03T05:38:12.696Z,3.00
2023-01-03T05:39:24.426Z,3.50
2023-01-03T05:40:28.255Z,3.78
2023-01-03T05:41:54.734Z,2.90
2023-01-03T05:42:59.847Z,2.70
2023-01-03T05:44:03.970Z,3.95
2023-01-03T05:45:09.602Z,3.63
2023-01-03T05:46:14.135Z,3.28
2023-01-03T05:47:19.449Z,3.42
2023-01-03T05:48:27.422Z,2.67
2023-01-03T05:49:43.842Z,3.40
2023-01-03T05:50:53.421Z,3.70
2023-01-03T05:52:06.628Z,3.78
2023-01-03T05:53:10.804Z,3.90
2023-01-03T05:54:21.442Z,3.72
2023-01-03T05:55:25.785Z,3.40
2023-01-03T05:56:33.013Z,3.00
2023-01-03T05:57:37.055Z,3.80
2023-01-03T05:58:50.486Z,3.78
2023-01-03T05:59:54.115Z,3.03
2023-01-03T06:01:13.574Z,2.70
2023-01-03T06:02:18.227Z,3.58
2023-01-03T06:03:21.805Z,3.10
2023-01-03T06:04:25.530Z,2.85
2023-01-03T06:05:31.501Z,3.30
2023-01-03T06:06:36.973Z,4.25
2023-01-03T06:07:41.133Z,2.65
2023-01-03T06:08:45.153Z,3.00
2023-01-03T06:09:49.006Z,3.85
2023-01-03T06:10:53.072Z,2.97
2023-01-03T06:11:56.663Z,2.58
2023-01-03T06:13:01.531Z,3.55
2023-01-03T06:14:07.440Z,3.72
2023-01-03T06:15:21.300Z,4.22
2023-01-03T06:16:52.869Z,3.55
2023-01-03T06:18:03.271Z,2.70
2023-01-03T06:19:13.840Z,3.10
2023-01-03T06:20:18.176Z,2.95
2023-01-03T06:21:22.449Z,3.28
2023-01-03T06:22:26.248Z,3.85
2023-01-03T06:23:36.836Z,4.05
2023-01-03T06:24:42.260Z,3.67
2023-01-03T06:25:51.649Z,2.97
2023-01-03T06:26:55.535Z,3.85
2023-01-03T06:28:07.084Z,3.90
2023-01-03T06:29:12.318Z,3.00
2023-01-03T06:30:27.281Z,3.92
2023-01-03T06:31:36.168Z,3.25
2023-01-03T06:32:40.477Z,3.75
2023-01-03T06:33:45.422Z,3.58
2023-01-03T06:34:48.836Z,3.65
2023-01-03T06:35:52.811Z,4.53
2023-01-03T06:37:10.871Z,4.78
2023-01-03T06:38:14.408Z,3.30
2023-01-03T06:39:19.400Z,4.18
2023-01-03T06:40:22.909Z,3.20
2023-01-03T06:41:26.715Z,3.22
2023-01-03T06:42:40.348Z,3.05
2023-01-03T06:43:44.691Z,3.92
2023-01-03T06:45:08.574Z,2.88
2023-01-03T06:46:32.612Z,3.25
2023-01-03T06:47:56.376Z,5.07
2023-01-03T06:49:19.776Z,3.05
2023-01-03T06:50:42.533Z,3.22
2023-01-03T06:52:11.964Z,3.33
2023-01-03T06:53:22.559Z,3.83
2023-01-03T06:54:36.455Z,3.47
2023-01-03T06:55:42.981Z,3.80
2023-01-03T06:56:47.873Z,3.30
2023-01-03T06:57:54.795Z,3.60
2023-01-03T06:59:06.465Z,4.03
2023-01-03T07:00:19.312Z,3.55
2023-01-03T07:01:23.123Z,3.70
2023-01-03T07:02:34.254Z,4.30
2023-01-03T07:03:38.623Z,3.92
2023-01-03T07:04:45.133Z,5.13
2023-01-03T07:05:50.553Z,3.78
2023-01-03T07:06:55.979Z,3.88
2023-01-03T07:07:59.667Z,3.92
2023-01-03T07:09:05.437Z,3.92
2023-01-03T07:10:10.583Z,3.55
2023-01-03T07:11:15.337Z,3.90
2023-01-03T07:12:39.406Z,4.70
2023-01-03T07:14:03.269Z,3.70
2023-01-03T07:15:14.855Z,4.45
2023-01-03T07:16:25.000Z,3.58
2023-01-03T07:17:30.485Z,3.58
2023-01-03T07:18:34.173Z,4.22
2023-01-03T07:19:38.490Z,3.92
2023-01-03T07:20:46.298Z,3.78
2023-01-03T07:21:49.932Z,2.72
2023-01-03T07:22:54.044Z,4.03
2023-01-03T07:24:01.956Z,3.40
2023-01-03T07:25:08.577Z,3.25
2023-01-03T07:26:12.675Z,2.55
2023-01-03T07:27:16.806Z,2.95
2023-01-03T07:28:20.375Z,4.50
2023-01-03T07:29:24.562Z,2.88
2023-01-03T07:30:28.756Z,4.25
2023-01-03T07:31:35.542Z,4.13
2023-01-03T07:32:39.367Z,3.67
2023-01-03T07:33:43.043Z,5.45
2023-01-03T07:34:46.972Z,4.95
2023-01-03T07:35:50.488Z,4.18
2023-01-03T07:36:54.330Z,5.32
2023-01-03T07:37:58.246Z,5.45
2023-01-03T07:39:02.200Z,4.30
2023-01-03T07:40:07.207Z,4.03
2023-01-03T07:41:12.786Z,4.32
2023-01-03T07:42:36.164Z,4.60
2023-01-03T07:43:53.744Z,6.05
2023-01-03T07:44:57.374Z,4.85
2023-01-03T07:46:22.556Z,4.60
2023-01-03T07:47:27.225Z,4.55
2023-01-03T07:48:31.596Z,5.45
2023-01-03T07:49:35.109Z,4.45
2023-01-03T07:50:39.901Z,4.35
2023-01-03T07:51:43.274Z,5.40
2023-01-03T07:52:47.395Z,5.05
2023-01-03T07:53:53.624Z,5.72
2023-01-03T07:54:58.390Z,5.38
2023-01-03T07:56:13.506Z,4.68
2023-01-03T07:57:20.851Z,5.65
2023-01-03T07:58:24.524Z,6.25
2023-01-03T07:59:28.155Z,5.05
2023-01-03T08:00:32.653Z,6.63
2023-01-03T08:01:36.410Z,6.15
2023-01-03T08:02:40.114Z,5.88
2023-01-03T08:03:44.620Z,5.07
2023-01-03T08:04:48.541Z,4.70
2023-01-03T08:05:52.410Z,5.40
2023-01-03T08:06:58.222Z,5.72
2023-01-03T08:08:03.969Z,4.90
2023-01-03T08:09:35.566Z,5.90
2023-01-03T08:10:58.583Z,4.90
2023-01-03T08:12:22.560Z,5.20
2023-01-03T08:13:26.065Z,5.10
2023-01-03T08:14:32.701Z,4.43
2023-01-03T08:15:36.214Z,4.63
2023-01-03T08:16:39.898Z,5.15
2023-01-03T08:17:44.229Z,4.97
2023-01-03T08:18:47.830Z,4.70
2023-01-03T08:19:51.359Z,5.18
2023-01-03T08:20:57.390Z,6.45
2023-01-03T08:22:02.486Z,5.72
2023-01-03T08:23:12.866Z,4.72
2023-01-03T08:24:17.325Z,4.88
2023-01-03T08:25:20.987Z,5.65
2023-01-03T08:26:24.628Z,5.35
2023-01-03T08:27:28.245Z,4.43
2023-01-03T08:28:32.668Z,4.90
2023-01-03T08:29:36.468Z,5.50
2023-01-03T08:30:46.440Z,4.78
2023-01-03T08:31:58.783Z,5.00
2023-01-03T08:33:04.289Z,4.25
2023-01-03T08:34:26.998Z,5.95
2023-01-03T08:35:38.615Z,7.28
2023-01-03T08:36:55.145Z,5.65
2023-01-03T08:38:01.863Z,5.70
2023-01-03T08:39:17.877Z,7.05
2023-01-03T08:40:22.287Z,5.13
2023-01-03T08:41:36.331Z,6.28
2023-01-03T08:42:40.566Z,6.55
2023-01-03T08:43:47.776Z,6.75
2023-01-03T08:45:01.537Z,6.50
2023-01-03T08:46:10.426Z,5.28
2023-01-03T08:47:16.193Z,4.00
2023-01-03T08:48:22.556Z,4.45
2023-01-03T08:49:26.957Z,6.03
2023-01-03T08:50:35.027Z,6.63
2023-01-03T08:51:39.069Z,5.80
2023-01-03T08:52:43.781Z,6.15
2023-01-03T08:53:47.390Z,4.00
2023-01-03T08:54:51.160Z,4.97
2023-01-03T08:55:59.790Z,6.13
2023-01-03T08:57:06.691Z,5.90
2023-01-03T08:58:16.110Z,6.72
2023-01-03T08:59:19.960Z,3.60
2023-01-03T09:00:24.368Z,5.18
2023-01-03T09:01:28.283Z,5.22
2023-01-03T09:02:38.388Z,5.53
2023-01-03T09:03:42.111Z,5.00
2023-01-03T09:04:46.813Z,5.13
2023-01-03T09:06:01.596Z,5.20
2023-01-03T09:07:08.129Z,4.07
2023-01-03T09:08:16.189Z,4.75
2023-01-03T09:09:21.418Z,4.88
2023-01-03T09:10:27.942Z,4.57
2023-01-03T09:11:38.990Z,4.72
2023-01-03T09:12:44.005Z,5.60
2023-01-03T09:13:49.311Z,5.45
2023-01-03T09:14:59.639Z,6.05
2023-01-03T09:16:21.264Z,5.65
2023-01-03T09:17:25.102Z,4.72
2023-01-03T09:18:40.285Z,3.97
2023-01-03T09:19:44.515Z,4.18
2023-01-03T09:20:52.900Z,5.00
2023-01-03T09:21:56.357Z,4.78
2023-01-03T09:22:59.746Z,5.70
2023-01-03T09:24:03.315Z,5.57
2023-01-03T09:25:11.041Z,4.90
2023-01-03T09:26:15.368Z,5.03
2023-01-03T09:27:19.042Z,5.53
2023-01-03T09:28:22.557Z,4.82
2023-01-03T09:29:26.662Z,5.00
2023-01-03T09:30:30.623Z,4.65
2023-01-03T09:31:34.927Z,5.90
2023-01-03T09:32:40.081Z,5.35
2023-01-03T09:33:43.921Z,5.53
2023-01-03T09:34:49.486Z,4.72
2023-01-03T09:35:56.932Z,5.57
2023-01-03T09:37:04.748Z,6.20
2023-01-03T09:38:14.093Z,3.70
2023-01-03T09:39:20.291Z,5.25
2023-01-03T09:40:25.943Z,4.75
2023-01-03T09:41:35.623Z,3.88
2023-01-03T09:43:02.508Z,5.38
2023-01-03T09:44:14.446Z,3.72
2023-01-03T09:45:30.447Z,5.60
2023-01-03T09:46:40.212Z,5.00
2023-01-03T09:47:46.275Z,4.25
2023-01-03T09:48:54.351Z,5.10
2023-01-03T09:51:51.045Z,4.78
2023-01-03T09:53:14.240Z,5.03
2023-01-03T09:55:00.487Z,4.55
2023-01-03T09:56:25.265Z,4.28
2023-01-03T09:57:54.708Z,4.38
2023-01-03T09:59:57.334Z,4.13
2023-01-03T10:01:52.452Z,3.72
2023-01-03T10:03:50.287Z,3.20
2023-01-03T10:05:12.455Z,3.72
2023-01-03T10:07:06.095Z,2.80
2023-01-03T10:08:38.892Z,3.35
2023-01-03T10:10:01.255Z,2.20
2023-01-03T10:11:39.364Z,2.58
2023-01-03T10:13:20.262Z,3.20
2023-01-03T10:14:58.367Z,2.70
2023-01-03T10:16:27.268Z,2.90
2023-01-03T10:17:43.562Z,3.08
2023-01-03T10:19:09.252Z,2.70
2023-01-03T10:20:35.334Z,2.83
2023-01-03T10:21:50.507Z,3.00
2023-01-03T10:22:56.371Z,2.58
2023-01-03T10:24:00.337Z,3.47
2023-01-03T10:25:16.585Z,2.78
2023-01-03T10:26:20.613Z,2.90
2023-01-03T10:27:29.957Z,3.35
2023-01-03T10:28:41.198Z,2.85
2023-01-03T10:29:48.141Z,3.55
2023-01-03T10:31:24.107Z,2.80
2023-01-03T10:33:25.436Z,3.28
2023-01-03T10:34:29.232Z,3.20
2023-01-03T10:35:36.644Z,2.92
2023-01-03T10:36:42.468Z,3.97
2023-01-03T10:37:50.605Z,3.20
2023-01-03T10:39:11.359Z,3.65
2023-01-03T10:40:15.994Z,3.28
2023-01-03T10:41:47.851Z,2.33
2023-01-03T10:42:59.317Z,3.25
2023-01-03T10:44:04.566Z,3.42
2023-01-03T10:45:16.830Z,2.45
2023-01-03T10:46:22.989Z,3.78
2023-01-03T10:47:27.813Z,2.55
2023-01-03T10:49:26.111Z,3.42
2023-01-03T10:50:24.228Z,3.03
2023-01-03T10:51:43.026Z,3.38
2023-01-03T10:52:55.073Z,3.10
2023-01-03T10:54:02.117Z,3.00
2023-01-03T10:55:18.718Z,2.75
2023-01-03T10:56:24.594Z,3.00
2023-01-03T10:58:10.939Z,2.42
2023-01-03T10:59:32.898Z,2.50
2023-01-03T11:00:38.568Z,2.75
2023-01-03T11:01:56.813Z,2.58
2023-01-03T11:03:11.828Z,3.35
2023-01-03T11:04:20.294Z,3.25
2023-01-03T11:05:27.174Z,2.38
2023-01-03T11:06:30.848Z,2.78
2023-01-03T11:07:34.553Z,2.50
2023-01-03T11:08:48.804Z,2.42
2023-01-03T11:09:58.754Z,2.45
2023-01-03T11:11:02.373Z,3.50
2023-01-03T11:12:38.247Z,2.58
2023-01-03T11:13:43.318Z,2.72
2023-01-03T11:14:56.479Z,3.00
2023-01-03T11:16:12.616Z,2.90
2023-01-03T11:17:20.628Z,2.85
2023-01-03T11:18:28.099Z,2.92
2023-01-03T11:19:34.989Z,3.10
2023-01-03T11:21:14.516Z,2.65
2023-01-03T11:22:46.707Z,3.05
2023-01-03T11:24:18.331Z,2.55
2023-01-03T11:25:41.298Z,2.33
2023-01-03T11:26:50.787Z,2.97
2023-01-03T11:28:27.960Z,3.90
2023-01-03T11:30:12.657Z,2.70
2023-01-03T11:32:00.312Z,3.03
2023-01-03T11:33:51.308Z,2.63
2023-01-03T11:37:01.115Z,2.40
2023-01-03T11:38:38.443Z,1.85
2023-01-03T11:40:18.268Z,1.90
2023-01-03T11:41:54.408Z,2.08
2023-01-03T11:43:44.973Z,1.40
2023-01-03T11:45:44.791Z,1.48
2023-01-03T11:47:14.029Z,2.22
2023-01-03T11:48:30.557Z,1.95
2023-01-03T11:49:58.558Z,2.33
2023-01-03T11:52:16.467Z,1.58
2023-01-03T11:54:40.375Z,1.90
2023-01-03T11:56:06.243Z,1.50
2023-01-03T11:57:53.826Z,1.20
2023-01-03T11:59:52.887Z,1.77
2023-01-03T12:01:24.042Z,2.30
2023-01-03T12:03:04.930Z,1.73
2023-01-03T12:04:54.083Z,1.60
2023-01-03T12:06:44.956Z,2.28
2023-01-03T12:08:27.551Z,1.80
2023-01-03T12:09:58.271Z,1.83
2023-01-03T12:11:18.547Z,1.83
2023-01-03T12:12:46.100Z,2.63
2023-01-03T12:14:39.705Z,2.72
2023-01-03T12:16:16.806Z,1.83
2023-01-03T12:17:34.143Z,1.88
2023-01-03T12:18:55.362Z,2.53
2023-01-03T12:20:22.285Z,2.67
2023-01-03T12:22:01.424Z,2.40
2023-01-03T12:23:43.153Z,2.20
2023-01-03T12:25:02.552Z,2.60
2023-01-03T12:26:16.538Z,2.50
2023-01-03T12:27:32.703Z,2.72
2023-01-03T12:28:41.987Z,3.88
2023-01-03T12:30:29.336Z,3.25
2023-01-03T12:31:57.561Z,3.80
2023-01-03T12:33:32.079Z,3.08
2023-01-03T12:34:40.204Z,4.97
2023-01-03T12:36:14.894Z,5.55
2023-01-03T12:37:26.990Z,3.17
2023-01-03T12:38:38.233Z,4.30
2023-01-03T12:39:57.895Z,3.58
2023-01-03T12:41:10.290Z,3.97
2023-01-03T12:42:37.331Z,3.55
2023-01-03T12:44:10.950Z,4.30
2023-01-03T12:45:40.332Z,3.70
2023-01-03T12:46:55.994Z,4.03
2023-01-03T12:48:41.061Z,2.88
2023-01-03T12:50:15.741Z,4.72
2023-01-03T12:51:23.080Z,4.57
2023-01-03T12:52:29.290Z,3.92
2023-01-03T12:53:53.378Z,3.45
2023-01-03T12:55:35.053Z,4.30
2023-01-03T12:57:03.191Z,3.60
2023-01-03T12:58:39.273Z,4.85
2023-01-03T13:00:52.831Z,3.90
2023-01-03T13:02:10.046Z,3.65
2023-01-03T13:03:37.336Z,4.55
2023-01-03T13:04:54.651Z,3.92
2023-01-03T13:06:26.495Z,2.90
2023-01-03T13:07:39.873Z,3.15
2023-01-03T13:09:00.294Z,3.38
2023-01-03T13:10:17.590Z,4.57
2023-01-03T13:11:27.184Z,3.88
2023-01-03T13:12:37.310Z,2.90
2023-01-03T13:14:06.415Z,3.95
2023-01-03T13:15:37.530Z,2.60
2023-01-03T13:16:47.347Z,2.83
2023-01-03T13:17:53.048Z,3.17
2023-01-03T13:19:16.768Z,4.20
2023-01-03T13:20:36.489Z,4.25
2023-01-03T13:21:55.536Z,3.40
2023-01-03T13:23:24.636Z,3.70
2023-01-03T13:24:52.387Z,2.85
2023-01-03T13:26:19.906Z,3.50
2023-01-03T13:27:38.092Z,2.75
2023-01-03T13:28:41.526Z,3.47
2023-01-03T13:30:17.033Z,2.67
2023-01-03T13:31:23.704Z,2.88
2023-01-03T13:32:37.906Z,5.03
2023-01-03T13:34:30.231Z,3.10
2023-01-03T13:35:47.005Z,3.45
2023-01-03T13:37:13.175Z,4.65
2023-01-03T13:38:40.197Z,3.83
2023-01-03T13:39:43.857Z,2.60
2023-01-03T13:41:17.203Z,4.90
2023-01-03T13:42:40.805Z,2.90
2023-01-03T13:43:50.494Z,3.50
2023-01-03T13:45:24.018Z,3.33
2023-01-03T13:46:33.586Z,3.97
2023-01-03T13:47:58.691Z,3.35
2023-01-03T13:49:17.070Z,3.58
2023-01-03T13:50:33.506Z,3.28
2023-01-03T13:51:40.488Z,3.97
2023-01-03T13:53:26.214Z,3.55
2023-01-03T13:55:07.911Z,3.47
2023-01-03T13:56:16.993Z,3.22
2023-01-03T13:57:53.010Z,3.45
2023-01-03T13:59:35.623Z,3.30
2023-01-03T14:00:41.054Z,2.58
2023-01-03T14:02:12.569Z,3.20
2023-01-03T14:03:55.206Z,3.33
2023-01-03T14:06:02.444Z,3.95
2023-01-03T14:08:00.527Z,3.05
2023-01-03T14:09:36.286Z,3.05
2023-01-03T14:11:29.123Z,3.35
2023-01-03T14:12:44.199Z,3.78
2023-01-03T14:13:59.807Z,3.10
2023-01-03T14:15:26.250Z,3.28
2023-01-03T14:16:46.968Z,3.13
2023-01-03T14:18:21.082Z,3.20
2023-01-03T14:19:40.966Z,2.80
2023-01-03T14:20:55.717Z,2.92
2023-01-03T14:22:27.602Z,2.45
2023-01-03T14:23:59.047Z,3.45
2023-01-03T14:24:57.602Z,3.58
2023-01-03T14:26:17.915Z,2.67
2023-01-03T14:27:33.624Z,2.80
2023-01-03T14:28:39.239Z,3.80
2023-01-03T14:29:52.517Z,3.47
2023-01-03T14:30:56.074Z,3.20
2023-01-03T14:32:00.589Z,3.42
2023-01-03T14:33:04.562Z,3.58
2023-01-03T14:34:42.068Z,3.67
2023-01-03T14:36:16.214Z,3.75
2023-01-03T14:37:27.214Z,2.60
2023-01-03T14:38:34.444Z,4.28
2023-01-03T14:40:48.406Z,3.28
2023-01-03T14:41:53.296Z,3.55
2023-01-03T14:42:57.151Z,3.05
2023-01-03T14:44:03.066Z,3.55
2023-01-03T14:45:18.505Z,3.53
2023-01-03T14:46:31.325Z,4.28
2023-01-03T14:47:55.312Z,5.82
2023-01-03T14:49:06.388Z,3.63
2023-01-03T14:50:22.589Z,4.03
2023-01-03T14:51:26.322Z,3.45
2023-01-03T14:52:43.184Z,3.28
2023-01-03T14:53:47.089Z,3.95
2023-01-03T14:54:57.228Z,3.08
2023-01-03T14:56:03.841Z,3.47
2023-01-03T14:57:24.030Z,2.95
2023-01-03T14:58:31.572Z,3.65
2023-01-03T14:59:35.625Z,3.78
2023-01-03T15:00:40.639Z,3.67
2023-01-03T15:01:46.498Z,3.70
2023-01-03T15:02:51.212Z,2.67
2023-01-03T15:03:56.960Z,3.70
2023-01-03T15:05:03.368Z,4.35
2023-01-03T15:06:26.766Z,3.45
2023-01-03T15:07:43.609Z,3.30
2023-01-03T15:08:50.179Z,4.00
2023-01-03T15:10:51.757Z,4.95
2023-01-03T15:11:56.515Z,4.10
2023-01-03T15:13:05.138Z,4.93
2023-01-03T15:14:16.571Z,4.22
2023-01-03T15:15:32.524Z,4.13
2023-01-03T15:16:42.661Z,4.35
2023-01-03T15:17:57.869Z,3.63
2023-01-03T15:19:14.739Z,4.82
2023-01-03T15:20:27.646Z,4.95
2023-01-03T15:21:31.425Z,4.15
2023-01-03T15:22:42.253Z,4.55
2023-01-03T15:23:50.236Z,4.85
2023-01-03T15:25:20.903Z,4.97
2023-01-03T15:26:41.666Z,4.15
2023-01-03T15:27:49.234Z,3.92
2023-01-03T15:29:09.738Z,5.20
2023-01-03T15:30:24.946Z,4.93
2023-01-03T15:31:40.408Z,3.97
2023-01-03T15:32:53.638Z,4.38
2023-01-03T15:34:13.317Z,4.05
2023-01-03T15:35:37.901Z,4.35
2023-01-03T15:36:51.968Z,3.85
2023-01-03T15:37:57.664Z,6.00
2023-01-03T15:39:01.431Z,4.38
2023-01-03T15:40:06.778Z,3.63
2023-01-03T15:42:12.763Z,3.75
2023-01-03T15:43:24.787Z,4.85
2023-01-03T15:44:29.345Z,4.38
2023-01-03T15:45:43.082Z,4.03
2023-01-03T15:46:49.872Z,3.75
2023-01-03T15:47:59.606Z,3.75
2023-01-03T15:49:09.744Z,3.75
2023-01-03T15:50:18.997Z,4.38
2023-01-03T15:51:22.938Z,4.47
2023-01-03T15:52:27.227Z,4.38
2023-01-03T15:53:42.867Z,4.72
2023-01-03T15:54:47.695Z,4.22
2023-01-03T15:55:57.187Z,5.20
2023-01-03T15:57:06.395Z,4.45
2023-01-03T15:58:14.566Z,4.20
2023-01-03T15:59:28.388Z,5.38
2023-01-03T16:00:33.894Z,3.38
2023-01-03T16:01:38.495Z,3.67
2023-01-03T16:02:42.299Z,3.65
2023-01-03T16:03:48.074Z,3.92
2023-01-03T16:04:54.161Z,5.00
2023-01-03T16:05:58.374Z,3.80
2023-01-03T16:07:01.848Z,3.47
2023-01-03T16:08:25.201Z,4.38
2023-01-03T16:09:28.953Z,3.85
2023-01-03T16:10:32.744Z,3.65
2023-01-03T16:11:36.969Z,3.22
2023-01-03T16:12:43.631Z,2.90
2023-01-03T16:13:54.288Z,3.10
2023-01-03T16:14:58.624Z,3.50
2023-01-03T16:16:02.968Z,2.95
2023-01-03T16:17:25.184Z,3.15
2023-01-03T16:18:45.466Z,3.00
2023-01-03T16:19:49.824Z,3.25
2023-01-03T16:20:56.204Z,3.08
2023-01-03T16:23:37.023Z,2.78
2023-01-03T16:24:41.443Z,3.13
2023-01-03T16:25:45.157Z,1.75
2023-01-03T16:26:49.152Z,1.95
2023-01-03T16:27:53.772Z,2.83
2023-01-03T16:28:59.918Z,2.58
2023-01-03T16:30:04.128Z,2.13
2023-01-03T16:31:16.484Z,2.60
2023-01-03T16:32:27.702Z,1.88
2023-01-03T16:33:35.994Z,2.50
2023-01-03T16:34:41.842Z,1.67
2023-01-03T16:35:46.144Z,2.30
2023-01-03T16:36:50.720Z,2.08
2023-01-03T16:37:54.646Z,2.15
2023-01-03T16:39:02.121Z,2.38